createdAt,value
2023-01-23T00:00:16.056Z,24.45
2023-01-23T00:02:42.994Z,24.44
2023-01-23T00:05:10.612Z,24.44
2023-01-23T00:07:37.529Z,24.42
2023-01-23T00:10:05.449Z,24.39
2023-01-23T00:12:32.389Z,24.38
2023-01-23T00:14:59.241Z,24.37
2023-01-23T00:17:27.514Z,24.35
2023-01-23T00:19:54.563Z,24.32
2023-01-23T00:22:21.520Z,24.30
2023-01-23T00:24:48.483Z,24.28
2023-01-23T00:27:15.351Z,24.26
2023-01-23T00:29:42.281Z,24.23
2023-01-23T00:32:09.183Z,24.21
2023-01-23T00:34:38.053Z,24.19
2023-01-23T00:37:05.276Z,24.16
2023-01-23T00:39:32.282Z,24.14
2023-01-23T00:41:59.253Z,24.13
2023-01-23T00:44:26.229Z,24.11
2023-01-23T00:46:53.153Z,24.10
2023-01-23T00:49:20.494Z,24.08
2023-01-23T00:51:50.423Z,24.07
2023-01-23T00:54:17.778Z,24.05
2023-01-23T00:56:44.667Z,24.04
2023-01-23T00:59:11.616Z,24.02
2023-01-23T01:01:38.940Z,24.01
2023-01-23T01:04:06.349Z,24.00
2023-01-23T01:06:33.424Z,23.99
2023-01-23T01:09:02.053Z,23.98
2023-01-23T01:11:29.081Z,23.98
2023-01-23T01:13:59.129Z,23.94
2023-01-23T01:16:26.122Z,23.93
2023-01-23T01:18:53.107Z,23.92
2023-01-23T01:21:20.079Z,23.91
2023-01-23T01:23:47.072Z,23.90
2023-01-23T01:26:15.407Z,23.89
2023-01-23T01:28:42.866Z,23.88
2023-01-23T01:31:11.773Z,23.87
2023-01-23T01:33:40.001Z,23.86
2023-01-23T01:36:09.893Z,23.85
2023-01-23T01:38:37.360Z,23.85
2023-01-23T01:41:06.937Z,23.85
2023-01-23T01:43:35.668Z,23.83
2023-01-23T01:46:11.987Z,23.82
2023-01-23T01:48:43.469Z,23.79
2023-01-23T01:51:13.321Z,23.80
2023-01-23T01:53:41.130Z,23.77
2023-01-23T01:56:12.486Z,23.75
2023-01-23T01:58:42.944Z,23.74
2023-01-23T02:01:10.167Z,23.75
2023-01-23T02:03:37.919Z,23.75
2023-01-23T02:06:06.019Z,23.73
2023-01-23T02:08:39.519Z,23.73
2023-01-23T02:11:07.145Z,23.74
2023-01-23T02:13:39.781Z,23.72
2023-01-23T02:16:09.963Z,23.72
2023-01-23T02:18:42.699Z,23.71
2023-01-23T02:21:10.805Z,23.70
2023-01-23T02:23:48.581Z,23.70
2023-01-23T02:26:25.862Z,23.70
2023-01-23T02:28:53.568Z,23.69
2023-01-23T02:31:23.752Z,23.68
2023-01-23T02:33:52.912Z,23.68
2023-01-23T02:36:23.678Z,23.68
2023-01-23T02:38:55.804Z,23.67
2023-01-23T02:41:28.862Z,23.67
2023-01-23T02:43:58.641Z,23.65
2023-01-23T02:46:26.588Z,23.64
2023-01-23T02:48:53.968Z,23.64
2023-01-23T02:51:22.733Z,23.64
2023-01-23T02:53:49.843Z,23.63
2023-01-23T02:56:18.849Z,23.62
2023-01-23T02:59:06.186Z,23.61
2023-01-23T03:01:35.836Z,23.59
2023-01-23T03:04:06.430Z,23.61
2023-01-23T03:06:38.380Z,23.59
2023-01-23T03:09:08.145Z,23.58
2023-01-23T03:11:36.575Z,23.60
2023-01-23T03:14:07.821Z,23.59
2023-01-23T03:16:38.000Z,23.58
2023-01-23T03:19:09.016Z,23.58
2023-01-23T03:21:39.995Z,23.59
2023-01-23T03:24:09.622Z,23.57
2023-01-23T03:26:38.895Z,23.57
2023-01-23T03:29:26.995Z,23.55
2023-01-23T03:31:53.990Z,23.55
2023-01-23T03:36:49.276Z,23.55
2023-01-23T03:39:34.403Z,23.54
2023-01-23T03:42:01.309Z,23.52
2023-01-23T03:44:31.434Z,23.52
2023-01-23T03:46:58.804Z,23.52
2023-01-23T03:51:58.325Z,23.52
2023-01-23T03:54:25.392Z,23.51
2023-01-23T03:56:53.491Z,23.50
2023-01-23T03:59:44.981Z,23.50
2023-01-23T04:02:12.992Z,23.50
2023-01-23T04:04:40.011Z,23.48
2023-01-23T04:07:09.064Z,23.48
2023-01-23T04:09:37.676Z,23.49
2023-01-23T04:12:05.033Z,23.48
2023-01-23T04:14:37.658Z,23.47
2023-01-23T04:17:07.232Z,23.46
2023-01-23T04:19:34.867Z,23.46
2023-01-23T04:22:02.406Z,23.46
2023-01-23T04:24:33.331Z,23.46
2023-01-23T04:27:00.308Z,23.44
2023-01-23T04:29:28.551Z,23.44
2023-01-23T04:31:55.562Z,23.44
2023-01-23T04:34:23.906Z,23.44
2023-01-23T04:36:52.651Z,23.43
2023-01-23T04:39:19.675Z,23.43
2023-01-23T04:41:48.905Z,23.42
2023-01-23T04:44:34.884Z,23.41
2023-01-23T04:47:31.085Z,23.39
2023-01-23T04:50:00.218Z,23.38
2023-01-23T04:52:29.613Z,23.38
2023-01-23T04:54:58.191Z,23.39
2023-01-23T04:57:25.797Z,23.38
2023-01-23T05:00:04.129Z,23.39
2023-01-23T05:02:31.664Z,23.38
2023-01-23T05:04:59.947Z,23.40
2023-01-23T05:07:27.016Z,23.38
2023-01-23T05:10:06.496Z,23.38
2023-01-23T05:12:34.480Z,23.38
2023-01-23T05:15:02.817Z,23.37
2023-01-23T05:17:30.376Z,23.36
2023-01-23T05:19:57.275Z,23.36
2023-01-23T05:22:25.686Z,23.36
2023-01-23T05:24:53.161Z,23.36
2023-01-23T05:27:20.087Z,23.36
2023-01-23T05:29:48.662Z,23.34
2023-01-23T05:32:20.635Z,23.33
2023-01-23T05:34:47.685Z,23.32
2023-01-23T05:37:25.462Z,23.34
2023-01-23T05:39:57.340Z,23.34
2023-01-23T05:42:26.231Z,23.34
2023-01-23T05:45:16.517Z,23.33
2023-01-23T05:47:44.199Z,23.35
2023-01-23T05:50:15.592Z,23.40
2023-01-23T05:52:44.120Z,23.44
2023-01-23T05:55:12.855Z,23.52
2023-01-23T05:57:41.335Z,23.60
2023-01-23T06:00:18.626Z,23.67
2023-01-23T06:03:06.538Z,23.75
2023-01-23T06:05:53.666Z,23.84
2023-01-23T06:08:20.620Z,23.93
2023-01-23T06:10:49.101Z,24.02
2023-01-23T06:13:16.368Z,24.12
2023-01-23T06:15:43.299Z,24.21
2023-01-23T06:18:11.852Z,24.29
2023-01-23T06:20:39.210Z,24.40
2023-01-23T06:23:06.170Z,24.47
2023-01-23T06:25:33.118Z,24.57
2023-01-23T06:28:05.539Z,24.65
2023-01-23T06:30:34.747Z,24.73
2023-01-23T06:33:02.063Z,24.80
2023-01-23T06:35:36.910Z,24.87
2023-01-23T06:38:05.788Z,24.91
2023-01-23T06:40:32.773Z,24.93
2023-01-23T06:43:14.020Z,24.96
2023-01-23T06:45:44.339Z,24.95
2023-01-23T06:48:11.396Z,24.95
2023-01-23T06:50:41.367Z,24.94
2023-01-23T06:53:09.375Z,24.94
2023-01-23T06:55:37.465Z,24.91
2023-01-23T06:58:04.920Z,24.91
2023-01-23T07:00:36.008Z,24.91
2023-01-23T07:03:05.328Z,24.92
2023-01-23T07:05:36.147Z,24.91
2023-01-23T07:08:04.809Z,24.92
2023-01-23T07:10:32.421Z,24.92
2023-01-23T07:13:01.467Z,24.92
2023-01-23T07:15:29.140Z,24.94
2023-01-23T07:17:57.424Z,24.95
2023-01-23T07:20:27.495Z,24.97
2023-01-23T07:22:58.176Z,25.00
2023-01-23T07:25:26.196Z,25.05
2023-01-23T07:27:53.412Z,25.07
2023-01-23T07:30:20.785Z,25.12
2023-01-23T07:32:48.029Z,25.17
2023-01-23T07:35:16.577Z,25.21
2023-01-23T07:37:43.469Z,25.26
2023-01-23T07:40:11.778Z,25.31
2023-01-23T07:42:39.918Z,25.35
2023-01-23T07:45:10.044Z,25.39
2023-01-23T07:47:39.856Z,25.43
2023-01-23T07:50:07.914Z,25.48
2023-01-23T07:52:36.527Z,25.53
2023-01-23T07:55:05.011Z,25.56
2023-01-23T07:57:33.975Z,25.61
2023-01-23T08:00:00.856Z,25.65
2023-01-23T08:02:27.812Z,25.67
2023-01-23T08:04:54.755Z,25.71
2023-01-23T08:07:21.759Z,25.74
2023-01-23T08:09:49.949Z,25.77
2023-01-23T08:12:16.933Z,25.79
2023-01-23T08:14:43.989Z,25.81
2023-01-23T08:17:10.851Z,25.82
2023-01-23T08:19:37.734Z,25.85
2023-01-23T08:22:04.650Z,25.86
2023-01-23T08:24:32.012Z,25.87
2023-01-23T08:27:00.528Z,25.89
2023-01-23T08:29:27.786Z,25.91
2023-01-23T08:31:55.172Z,25.92
2023-01-23T08:34:24.102Z,25.93
2023-01-23T08:36:51.083Z,25.95
2023-01-23T08:39:18.310Z,25.95
2023-01-23T08:41:45.202Z,25.95
2023-01-23T08:44:13.833Z,25.97
2023-01-23T08:46:40.721Z,25.98
2023-01-23T08:49:08.208Z,25.98
2023-01-23T08:51:35.955Z,25.99
2023-01-23T08:54:02.914Z,25.99
2023-01-23T08:56:29.885Z,26.00
2023-01-23T08:58:57.597Z,26.00
2023-01-23T09:01:27.124Z,26.00
2023-01-23T09:03:54.367Z,26.00
2023-01-23T09:06:22.653Z,26.00
2023-01-23T09:08:49.758Z,26.00
2023-01-23T09:11:17.497Z,26.00
2023-01-23T09:13:46.022Z,26.00
2023-01-23T09:16:13.133Z,26.01
2023-01-23T09:18:41.440Z,26.01
2023-01-23T09:21:11.385Z,26.02
2023-01-23T09:23:38.652Z,26.03
2023-01-23T09:26:06.632Z,26.02
2023-01-23T09:28:34.967Z,26.01
2023-01-23T09:31:07.355Z,26.02
2023-01-23T09:33:34.474Z,26.02
2023-01-23T09:36:03.250Z,26.01
2023-01-23T09:38:30.170Z,26.02
2023-01-23T09:40:58.963Z,26.02
2023-01-23T09:43:35.769Z,26.02
2023-01-23T09:46:07.963Z,26.02
2023-01-23T09:48:43.178Z,26.00
2023-01-23T09:51:20.735Z,26.00
2023-01-23T09:53:48.063Z,25.99
2023-01-23T09:56:28.508Z,25.99
2023-01-23T09:59:11.821Z,26.00
2023-01-23T10:01:38.933Z,25.99
2023-01-23T10:04:06.344Z,25.99
2023-01-23T10:06:57.263Z,25.98
2023-01-23T10:09:34.545Z,25.96
2023-01-23T10:12:06.673Z,25.95
2023-01-23T10:14:52.156Z,25.94
2023-01-23T10:17:25.790Z,25.95
2023-01-23T10:20:14.367Z,25.95
2023-01-23T10:22:51.290Z,25.95
2023-01-23T10:25:22.418Z,25.95
2023-01-23T10:27:50.673Z,25.95
2023-01-23T10:30:22.974Z,25.93
2023-01-23T10:32:56.007Z,25.93
2023-01-23T10:35:25.831Z,25.93
2023-01-23T10:38:01.884Z,25.93
2023-01-23T10:40:47.587Z,25.93
2023-01-23T10:43:17.231Z,25.92
2023-01-23T10:45:45.873Z,25.92
2023-01-23T10:48:38.374Z,25.93
2023-01-23T10:51:23.251Z,25.92
2023-01-23T10:54:17.008Z,25.92
2023-01-23T10:56:58.214Z,25.90
2023-01-23T10:59:35.718Z,25.91
2023-01-23T11:02:18.615Z,25.90
2023-01-23T11:04:47.559Z,25.91
2023-01-23T11:07:16.626Z,25.91
2023-01-23T11:09:51.465Z,25.90
2023-01-23T11:12:21.410Z,25.90
2023-01-23T11:14:48.849Z,25.89
2023-01-23T11:17:20.063Z,25.90
2023-01-23T11:19:49.733Z,25.89
2023-01-23T11:22:31.097Z,25.90
2023-01-23T11:24:59.837Z,25.89
2023-01-23T11:27:30.991Z,25.88
2023-01-23T11:30:29.953Z,25.88
2023-01-23T11:32:59.507Z,25.86
2023-01-23T11:35:42.617Z,25.86
2023-01-23T11:38:18.010Z,25.85
2023-01-23T11:40:48.220Z,25.85
2023-01-23T11:43:15.977Z,25.83
2023-01-23T11:46:02.598Z,25.83
2023-01-23T11:48:41.092Z,25.83
2023-01-23T11:51:16.137Z,25.82
2023-01-23T11:53:51.313Z,25.81
2023-01-23T11:56:54.228Z,25.83
2023-01-23T11:59:41.888Z,25.80
2023-01-23T12:03:00.076Z,25.80
2023-01-23T12:05:45.299Z,25.78
2023-01-23T12:08:25.114Z,25.78
2023-01-23T12:11:09.392Z,25.78
2023-01-23T12:13:59.584Z,25.78
2023-01-23T12:16:37.860Z,25.78
2023-01-23T12:19:17.205Z,25.77
2023-01-23T12:21:53.173Z,25.76
2023-01-23T12:24:36.205Z,25.76
2023-01-23T12:27:20.772Z,25.75
2023-01-23T12:30:26.242Z,25.76
2023-01-23T12:33:05.601Z,25.74
2023-01-23T12:35:42.260Z,25.74
2023-01-23T12:38:27.505Z,25.75
2023-01-23T12:41:06.419Z,25.75
2023-01-23T12:43:40.696Z,25.74
2023-01-23T12:46:11.920Z,25.74
2023-01-23T12:48:46.793Z,25.73
2023-01-23T12:51:20.316Z,25.74
2023-01-23T12:53:51.551Z,25.75
2023-01-23T12:56:24.476Z,25.73
2023-01-23T12:59:02.354Z,25.74
2023-01-23T13:01:46.624Z,25.73
2023-01-23T13:04:28.456Z,25.72
2023-01-23T13:07:14.773Z,25.74
2023-01-23T13:09:58.248Z,25.73
2023-01-23T13:12:27.516Z,25.72
2023-01-23T13:15:15.514Z,25.72
2023-01-23T13:17:48.440Z,25.71
2023-01-23T13:20:47.465Z,25.71
2023-01-23T13:23:29.735Z,25.70
2023-01-23T13:26:13.572Z,25.68
2023-01-23T13:28:45.594Z,25.70
2023-01-23T13:31:26.882Z,25.69
2023-01-23T13:34:06.726Z,25.69
2023-01-23T13:36:42.070Z,25.69
2023-01-23T13:39:26.665Z,25.69
2023-01-23T13:42:26.892Z,25.68
2023-01-23T13:45:27.250Z,25.69
2023-01-23T14:20:26.549Z,25.62
2023-01-23T14:22:55.637Z,25.63
2023-01-23T14:25:37.843Z,25.64
2023-01-23T14:28:06.024Z,25.64
2023-01-23T14:30:34.390Z,25.64
2023-01-23T14:33:01.323Z,25.64
2023-01-23T14:35:30.016Z,25.65
2023-01-23T14:37:59.149Z,25.66
2023-01-23T14:40:30.591Z,25.66
2023-01-23T14:43:04.982Z,25.66
2023-01-23T14:45:34.506Z,25.65
2023-01-23T14:48:06.644Z,25.65
2023-01-23T14:50:34.446Z,25.64
2023-01-23T14:53:03.942Z,25.65
2023-01-23T14:55:34.613Z,25.64
2023-01-23T14:58:03.778Z,25.64
2023-01-23T15:00:31.280Z,25.64
2023-01-23T15:02:59.722Z,25.64
2023-01-23T15:05:28.119Z,25.63
2023-01-23T15:07:57.979Z,25.63
2023-01-23T15:10:28.075Z,25.63
2023-01-23T15:12:57.907Z,25.63
2023-01-23T15:15:26.463Z,25.62
2023-01-23T15:17:54.940Z,25.63
2023-01-23T15:20:35.437Z,25.62
2023-01-23T15:23:24.776Z,25.63
2023-01-23T15:26:10.486Z,25.60
2023-01-23T15:28:48.483Z,25.60
2023-01-23T15:31:24.950Z,25.60
2023-01-23T15:33:52.480Z,25.59
2023-01-23T15:36:26.852Z,25.59
2023-01-23T15:38:55.119Z,25.60
2023-01-23T15:41:39.647Z,25.58
2023-01-23T15:44:12.993Z,25.59
2023-01-23T15:46:40.051Z,25.59
2023-01-23T15:49:16.453Z,25.59
2023-01-23T15:51:52.422Z,25.59
2023-01-23T15:54:24.269Z,25.59
2023-01-23T15:57:05.432Z,25.59
2023-01-23T15:59:34.836Z,25.60
2023-01-23T16:02:01.757Z,25.60
2023-01-23T16:04:28.657Z,25.59
2023-01-23T16:06:58.137Z,25.60
2023-01-23T16:09:30.874Z,25.59
2023-01-23T16:11:59.863Z,25.60
2023-01-23T16:14:27.135Z,25.59
2023-01-23T16:16:55.322Z,25.60
2023-01-23T16:19:23.549Z,25.61
2023-01-23T16:22:03.929Z,25.61
2023-01-23T16:24:35.177Z,25.62
2023-01-23T16:27:02.669Z,25.59
2023-01-23T16:29:31.994Z,25.59
2023-01-23T16:32:01.213Z,25.60
2023-01-23T16:34:28.464Z,25.62
2023-01-23T16:36:58.268Z,25.62
2023-01-23T16:39:27.502Z,25.63
2023-01-23T16:41:55.989Z,25.63
2023-01-23T16:44:26.466Z,25.63
2023-01-23T16:46:54.427Z,25.63
2023-01-23T16:49:21.397Z,25.63
2023-01-23T16:51:56.362Z,25.65
2023-01-23T16:54:24.100Z,25.67
2023-01-23T16:56:53.269Z,25.69
2023-01-23T16:59:30.683Z,25.71
2023-01-23T17:01:58.104Z,25.73
2023-01-23T17:04:25.040Z,25.76
2023-01-23T17:06:52.008Z,25.78
2023-01-23T17:09:18.895Z,25.81
2023-01-23T17:11:48.625Z,25.80
2023-01-23T17:14:19.254Z,25.80
2023-01-23T17:16:49.905Z,25.79
2023-01-23T17:19:22.698Z,25.78
2023-01-23T17:21:50.076Z,25.78
2023-01-23T17:24:17.784Z,25.79
2023-01-23T17:26:45.064Z,25.81
2023-01-23T17:29:12.542Z,25.83
2023-01-23T17:31:39.869Z,25.84
2023-01-23T17:34:17.099Z,25.86
2023-01-23T17:36:44.053Z,25.86
2023-01-23T17:39:11.881Z,25.89
2023-01-23T17:41:38.870Z,25.91
2023-01-23T17:44:06.155Z,25.93
2023-01-23T17:46:36.808Z,25.95
2023-01-23T17:49:05.347Z,25.95
2023-01-23T17:51:34.050Z,25.95
2023-01-23T17:54:01.058Z,25.95
2023-01-23T17:56:27.949Z,25.95
2023-01-23T17:58:54.887Z,25.93
2023-01-23T18:01:25.450Z,25.93
2023-01-23T18:03:53.352Z,25.91
2023-01-23T18:06:20.897Z,25.91
2023-01-23T18:08:49.168Z,25.90
2023-01-23T18:11:18.974Z,25.89
2023-01-23T18:14:02.056Z,25.87
2023-01-23T18:16:36.631Z,25.86
2023-01-23T18:19:15.034Z,25.86
2023-01-23T18:21:42.459Z,25.85
2023-01-23T18:24:22.271Z,25.83
2023-01-23T18:26:57.122Z,25.83
2023-01-23T18:29:32.341Z,25.82
2023-01-23T18:32:24.296Z,25.82
2023-01-23T18:34:55.522Z,25.81
2023-01-23T18:37:33.208Z,25.80
2023-01-23T18:40:10.514Z,25.80
2023-01-23T18:42:46.429Z,25.78
2023-01-23T18:45:23.836Z,25.78
2023-01-23T18:47:54.646Z,25.80
2023-01-23T18:50:22.984Z,25.82
2023-01-23T18:53:06.089Z,25.83
2023-01-23T18:55:39.726Z,25.83
2023-01-23T18:58:30.886Z,25.80
2023-01-23T19:01:08.659Z,25.80
2023-01-23T19:03:42.529Z,25.78
2023-01-23T19:06:18.636Z,25.79
2023-01-23T19:08:45.777Z,25.77
2023-01-23T19:11:26.737Z,25.75
2023-01-23T19:14:04.910Z,25.75
2023-01-23T19:16:33.386Z,25.74
2023-01-23T19:19:15.890Z,25.74
2023-01-23T19:21:46.056Z,25.73
2023-01-23T19:24:15.349Z,25.72
2023-01-23T19:26:44.169Z,25.71
2023-01-23T19:29:21.477Z,25.70
2023-01-23T19:32:06.182Z,25.69
2023-01-23T19:34:34.300Z,25.69
2023-01-23T19:37:01.395Z,25.69
2023-01-23T19:39:28.262Z,25.69
2023-01-23T19:41:58.974Z,25.69
2023-01-23T19:44:28.803Z,25.69
2023-01-23T19:46:55.877Z,25.70
2023-01-23T19:49:22.902Z,25.69
2023-01-23T19:51:49.824Z,25.69
2023-01-23T19:54:16.823Z,25.71
2023-01-23T19:56:43.775Z,25.71
2023-01-23T19:59:12.055Z,25.70
2023-01-23T20:01:43.240Z,25.71
2023-01-23T20:04:13.625Z,25.72
2023-01-23T20:06:40.808Z,25.71
2023-01-23T20:09:08.394Z,25.73
2023-01-23T20:11:36.474Z,25.72
2023-01-23T20:14:03.425Z,25.74
2023-01-23T20:16:31.897Z,25.74
2023-01-23T20:18:58.826Z,25.74
2023-01-23T20:21:26.224Z,25.74
2023-01-23T20:23:53.137Z,25.74
2023-01-23T20:26:21.498Z,25.76
2023-01-23T20:28:48.846Z,25.75
2023-01-23T20:31:16.657Z,25.76
2023-01-23T20:33:45.024Z,25.76
2023-01-23T20:36:13.418Z,25.76
2023-01-23T20:38:40.931Z,25.75
2023-01-23T20:41:10.251Z,25.78
2023-01-23T20:43:38.156Z,25.76
2023-01-23T20:46:06.394Z,25.75
2023-01-23T20:48:34.110Z,25.72
2023-01-23T20:51:03.480Z,25.68
2023-01-23T20:53:30.677Z,25.64
2023-01-23T20:55:59.498Z,25.59
2023-01-23T20:58:45.927Z,25.55
2023-01-23T21:01:13.214Z,25.51
2023-01-23T21:03:41.433Z,25.48
2023-01-23T21:06:10.826Z,25.47
2023-01-23T21:08:38.357Z,25.48
2023-01-23T21:11:06.729Z,25.47
2023-01-23T21:13:34.239Z,25.44
2023-01-23T21:16:03.181Z,25.45
2023-01-23T21:18:30.767Z,25.43
2023-01-23T21:21:04.111Z,25.41
2023-01-23T21:23:34.185Z,25.38
2023-01-23T21:26:02.401Z,25.37
2023-01-23T21:28:31.905Z,25.36
2023-01-23T21:30:59.218Z,25.32
2023-01-23T21:33:26.297Z,25.29
2023-01-23T21:35:54.458Z,25.27
2023-01-23T21:38:22.890Z,25.24
2023-01-23T21:40:51.119Z,25.21
2023-01-23T21:43:18.080Z,25.19
2023-01-23T21:45:44.957Z,25.16
2023-01-23T21:48:12.264Z,25.14
2023-01-23T21:50:39.166Z,25.11
2023-01-23T21:53:07.334Z,25.09
2023-01-23T21:55:34.206Z,25.07
2023-01-23T21:58:02.488Z,25.04
2023-01-23T22:00:58.459Z,25.01
2023-01-23T22:03:25.437Z,24.96
2023-01-23T22:05:57.469Z,24.94
2023-01-23T22:08:24.420Z,24.91
2023-01-23T22:10:51.817Z,24.88
2023-01-23T22:13:20.080Z,24.85
2023-01-23T22:15:47.009Z,24.83
2023-01-23T22:18:13.963Z,24.81
2023-01-23T22:20:40.810Z,24.77
2023-01-23T22:23:07.791Z,24.74
2023-01-23T22:25:34.753Z,24.71
2023-01-23T22:28:01.617Z,24.70
2023-01-23T22:30:29.849Z,24.67
2023-01-23T22:32:56.802Z,24.66
2023-01-23T22:35:23.777Z,24.64
2023-01-23T22:37:50.690Z,24.63
2023-01-23T22:40:18.199Z,24.61
2023-01-23T22:42:45.104Z,24.59
2023-01-23T22:45:12.390Z,24.57
2023-01-23T22:47:40.696Z,24.55
2023-01-23T22:50:08.757Z,24.54
2023-01-23T22:52:35.787Z,24.53
2023-01-23T22:55:02.874Z,24.52
2023-01-23T22:57:29.779Z,24.50
2023-01-23T22:59:56.638Z,24.49
2023-01-23T23:02:23.582Z,24.47
2023-01-23T23:04:52.019Z,24.44
2023-01-23T23:07:19.123Z,24.42
2023-01-23T23:09:46.123Z,24.40
2023-01-23T23:12:13.591Z,24.40
2023-01-23T23:14:40.585Z,24.37
2023-01-23T23:17:07.513Z,24.37
2023-01-23T23:19:34.531Z,24.36
2023-01-23T23:22:02.883Z,24.34
2023-01-23T23:24:30.151Z,24.34
2023-01-23T23:26:57.094Z,24.31
2023-01-23T23:29:24.151Z,24.30
2023-01-23T23:31:52.163Z,24.29
2023-01-23T23:34:19.495Z,24.28
2023-01-23T23:36:46.759Z,24.26
2023-01-23T23:39:15.104Z,24.25
2023-01-23T23:41:41.997Z,24.23
2023-01-23T23:44:09.131Z,24.23
2023-01-23T23:46:36.059Z,24.22
2023-01-23T23:49:03.158Z,24.20
2023-01-23T23:51:30.166Z,24.20
2023-01-23T23:53:57.130Z,24.18
2023-01-23T23:56:27.339Z,24.18
2023-01-23T23:58:54.910Z,24.16
